createdAt,value
2023-05-24T00:00:39.671Z,989.67
2023-05-24T00:01:39.561Z,989.66
2023-05-24T00:02:39.618Z,989.66
2023-05-24T00:03:39.768Z,989.65
2023-05-24T00:04:39.594Z,989.65
2023-05-24T00:05:39.539Z,989.65
2023-05-24T00:06:39.523Z,989.66
2023-05-24T00:07:39.514Z,989.66
2023-05-24T00:08:39.506Z,989.66
2023-05-24T00:09:39.498Z,989.65
2023-05-24T00:10:39.497Z,989.65
2023-05-24T00:11:39.470Z,989.65
2023-05-24T00:12:39.484Z,989.64
2023-05-24T00:13:39.470Z,989.64
2023-05-24T00:14:39.447Z,989.63
2023-05-24T00:15:39.437Z,989.62
2023-05-24T00:16:39.479Z,989.61
2023-05-24T00:17:39.476Z,989.61
2023-05-24T00:18:39.444Z,989.62
2023-05-24T00:19:39.392Z,989.62
2023-05-24T00:20:39.666Z,989.62
2023-05-24T00:21:39.382Z,989.62
2023-05-24T00:22:39.404Z,989.61
2023-05-24T00:23:39.346Z,989.61
2023-05-24T00:24:39.332Z,989.61
2023-05-24T00:25:39.323Z,989.60
2023-05-24T00:26:39.336Z,989.59
2023-05-24T00:27:39.311Z,989.58
2023-05-24T00:28:39.314Z,989.56
2023-05-24T00:29:39.290Z,989.55
2023-05-24T00:30:39.397Z,989.55
2023-05-24T00:31:39.337Z,989.55
2023-05-24T00:32:39.321Z,989.55
2023-05-24T00:33:39.279Z,989.54
2023-05-24T00:34:39.240Z,989.54
2023-05-24T00:35:39.257Z,989.54
2023-05-24T00:36:39.217Z,989.53
2023-05-24T00:37:39.223Z,989.52
2023-05-24T00:38:39.250Z,989.51
2023-05-24T00:39:39.196Z,989.50
2023-05-24T00:40:39.178Z,989.50
2023-05-24T00:41:39.192Z,989.49
2023-05-24T00:42:39.152Z,989.49
2023-05-24T00:43:39.155Z,989.49
2023-05-24T00:44:39.187Z,989.49
2023-05-24T00:45:39.148Z,989.50
2023-05-24T00:46:39.259Z,989.49
2023-05-24T00:47:39.179Z,989.47
2023-05-24T00:48:39.102Z,989.45
2023-05-24T00:49:39.117Z,989.44
2023-05-24T00:50:39.089Z,989.44
2023-05-24T00:51:39.103Z,989.45
2023-05-24T00:52:39.072Z,989.46
2023-05-24T00:53:39.050Z,989.46
2023-05-24T00:54:39.054Z,989.47
2023-05-24T00:55:39.052Z,989.46
2023-05-24T00:56:39.013Z,989.47
2023-05-24T00:57:39.009Z,989.46
2023-05-24T00:58:38.980Z,989.46
2023-05-24T00:59:38.979Z,989.47
2023-05-24T01:00:39.011Z,989.48
2023-05-24T01:01:39.030Z,989.49
2023-05-24T01:02:39.075Z,989.49
2023-05-24T01:03:39.060Z,989.50
2023-05-24T01:04:38.949Z,989.51
2023-05-24T01:05:38.938Z,989.51
2023-05-24T01:06:38.958Z,989.52
2023-05-24T01:07:38.919Z,989.54
2023-05-24T01:08:39.018Z,989.54
2023-05-24T01:09:38.913Z,989.54
2023-05-24T01:10:38.884Z,989.54
2023-05-24T01:11:38.882Z,989.55
2023-05-24T01:12:38.895Z,989.54
2023-05-24T01:13:38.851Z,989.54
2023-05-24T01:14:38.852Z,989.54
2023-05-24T01:15:38.884Z,989.53
2023-05-24T01:16:38.892Z,989.52
2023-05-24T01:17:38.880Z,989.53
2023-05-24T01:18:38.810Z,989.54
2023-05-24T01:19:38.798Z,989.53
2023-05-24T01:20:39.031Z,989.52
2023-05-24T01:21:38.825Z,989.51
2023-05-24T01:22:38.751Z,989.49
2023-05-24T01:23:38.765Z,989.49
2023-05-24T01:24:38.728Z,989.49
2023-05-24T01:25:38.735Z,989.50
2023-05-24T01:26:38.716Z,989.50
2023-05-24T01:27:38.730Z,989.48
2023-05-24T01:28:38.752Z,989.48
2023-05-24T01:29:38.757Z,989.47
2023-05-24T01:30:38.686Z,989.47
2023-05-24T01:31:38.699Z,989.47
2023-05-24T01:32:38.766Z,989.47
2023-05-24T01:33:38.661Z,989.46
2023-05-24T01:34:38.745Z,989.45
2023-05-24T01:35:38.635Z,989.43
2023-05-24T01:36:38.602Z,989.42
2023-05-24T01:37:38.594Z,989.41
2023-05-24T01:38:38.601Z,989.41
2023-05-24T01:39:38.633Z,989.41
2023-05-24T01:40:38.568Z,989.41
2023-05-24T01:41:38.562Z,989.41
2023-05-24T01:42:38.556Z,989.41
2023-05-24T01:43:38.547Z,989.42
2023-05-24T01:44:38.540Z,989.41
2023-05-24T01:45:38.548Z,989.40
2023-05-24T01:46:38.614Z,989.40
2023-05-24T01:47:38.537Z,989.40
2023-05-24T01:48:38.485Z,989.40
2023-05-24T01:49:38.465Z,989.40
2023-05-24T01:50:38.473Z,989.40
2023-05-24T01:51:38.476Z,989.39
2023-05-24T01:52:38.448Z,989.39
2023-05-24T01:53:38.444Z,989.38
2023-05-24T01:54:38.433Z,989.36
2023-05-24T01:55:38.620Z,989.35
2023-05-24T01:56:38.414Z,989.33
2023-05-24T01:57:38.416Z,989.32
2023-05-24T01:58:38.411Z,989.32
2023-05-24T01:59:38.378Z,989.32
2023-05-24T02:00:38.382Z,989.32
2023-05-24T02:01:38.436Z,989.33
2023-05-24T02:02:38.415Z,989.33
2023-05-24T02:03:38.339Z,989.35
2023-05-24T02:04:38.314Z,989.36
2023-05-24T02:05:38.300Z,989.38
2023-05-24T02:06:38.305Z,989.39
2023-05-24T02:07:38.324Z,989.38
2023-05-24T02:08:38.287Z,989.38
2023-05-24T02:09:38.280Z,989.40
2023-05-24T02:10:38.272Z,989.40
2023-05-24T02:11:38.246Z,989.41
2023-05-24T02:12:38.237Z,989.41
2023-05-24T02:13:38.265Z,989.41
2023-05-24T02:14:38.206Z,989.42
2023-05-24T02:15:38.217Z,989.42
2023-05-24T02:16:38.263Z,989.43
2023-05-24T02:17:38.235Z,989.44
2023-05-24T02:18:38.219Z,989.45
2023-05-24T02:19:38.194Z,989.45
2023-05-24T02:20:38.230Z,989.46
2023-05-24T02:21:38.158Z,989.46
2023-05-24T02:22:38.139Z,989.46
2023-05-24T02:23:38.147Z,989.47
2023-05-24T02:24:38.110Z,989.48
2023-05-24T02:25:38.099Z,989.49
2023-05-24T02:26:38.096Z,989.50
2023-05-24T02:27:38.085Z,989.50
2023-05-24T02:28:38.098Z,989.50
2023-05-24T02:29:38.074Z,989.50
2023-05-24T02:30:38.046Z,989.50
2023-05-24T02:31:38.207Z,989.49
2023-05-24T02:32:38.080Z,989.48
2023-05-24T02:33:38.096Z,989.49
2023-05-24T02:34:38.054Z,989.48
2023-05-24T02:35:38.013Z,989.48
2023-05-24T02:36:38.013Z,989.47
2023-05-24T02:37:38.009Z,989.46
2023-05-24T02:38:38.019Z,989.43
2023-05-24T02:39:37.977Z,989.42
2023-05-24T02:40:37.949Z,989.42
2023-05-24T02:41:37.944Z,989.41
2023-05-24T02:42:37.934Z,989.40
2023-05-24T02:43:37.932Z,989.39
2023-05-24T02:44:37.955Z,989.40
2023-05-24T02:45:37.920Z,989.40
2023-05-24T02:46:37.953Z,989.40
2023-05-24T02:47:37.917Z,989.39
2023-05-24T02:48:37.884Z,989.39
2023-05-24T02:49:37.871Z,989.38
2023-05-24T02:50:37.912Z,989.37
2023-05-24T02:51:37.867Z,989.36
2023-05-24T02:52:37.839Z,989.36
2023-05-24T02:53:37.837Z,989.37
2023-05-24T02:54:37.830Z,989.39
2023-05-24T02:55:37.806Z,989.39
2023-05-24T02:56:37.811Z,989.39
2023-05-24T02:57:37.784Z,989.39
2023-05-24T02:58:37.769Z,989.40
2023-05-24T02:59:38.054Z,989.40
2023-05-24T03:00:37.749Z,989.40
2023-05-24T03:01:37.798Z,989.39
2023-05-24T03:02:37.903Z,989.38
2023-05-24T03:03:37.823Z,989.37
2023-05-24T03:04:37.713Z,989.37
2023-05-24T03:05:37.755Z,989.38
2023-05-24T03:06:37.703Z,989.38
2023-05-24T03:07:37.695Z,989.39
2023-05-24T03:08:37.690Z,989.39
2023-05-24T03:09:37.664Z,989.39
2023-05-24T03:10:37.670Z,989.40
2023-05-24T03:11:37.645Z,989.41
2023-05-24T03:12:37.621Z,989.41
2023-05-24T03:13:37.629Z,989.40
2023-05-24T03:14:37.600Z,989.40
2023-05-24T03:15:37.663Z,989.39
2023-05-24T03:16:37.783Z,989.37
2023-05-24T03:17:37.714Z,989.36
2023-05-24T03:18:37.576Z,989.35
2023-05-24T03:19:37.557Z,989.34
2023-05-24T03:20:37.610Z,989.33
2023-05-24T03:21:37.546Z,989.34
2023-05-24T03:22:37.536Z,989.33
2023-05-24T03:23:37.520Z,989.32
2023-05-24T03:24:37.507Z,989.32
2023-05-24T03:25:37.533Z,989.32
2023-05-24T03:26:37.478Z,989.32
2023-05-24T03:27:37.487Z,989.33
2023-05-24T03:28:37.491Z,989.35
2023-05-24T03:29:37.465Z,989.34
2023-05-24T03:30:37.463Z,989.35
2023-05-24T03:31:37.539Z,989.35
2023-05-24T03:32:37.465Z,989.35
2023-05-24T03:33:37.431Z,989.37
2023-05-24T03:34:37.426Z,989.38
2023-05-24T03:35:37.395Z,989.39
2023-05-24T03:36:37.370Z,989.40
2023-05-24T03:37:37.395Z,989.39
2023-05-24T03:38:37.377Z,989.38
2023-05-24T03:39:37.358Z,989.37
2023-05-24T03:40:37.333Z,989.37
2023-05-24T03:41:37.349Z,989.37
2023-05-24T03:42:37.368Z,989.38
2023-05-24T03:43:37.334Z,989.37
2023-05-24T03:44:37.313Z,989.36
2023-05-24T03:45:39.727Z,989.36
2023-05-24T03:46:37.334Z,989.36
2023-05-24T03:47:37.360Z,989.36
2023-05-24T03:48:37.276Z,989.36
2023-05-24T03:49:37.268Z,989.36
2023-05-24T03:50:37.252Z,989.36
2023-05-24T03:51:37.249Z,989.37
2023-05-24T03:52:37.236Z,989.38
2023-05-24T03:53:37.250Z,989.36
2023-05-24T03:54:37.220Z,989.37
2023-05-24T03:55:37.203Z,989.38
2023-05-24T03:56:37.203Z,989.39
2023-05-24T03:57:37.197Z,989.41
2023-05-24T03:58:37.176Z,989.42
2023-05-24T03:59:38.758Z,989.43
2023-05-24T04:00:37.147Z,989.43
2023-05-24T04:01:37.128Z,989.42
2023-05-24T04:02:37.197Z,989.42
2023-05-24T04:03:37.183Z,989.41
2023-05-24T04:04:37.097Z,989.41
2023-05-24T04:05:37.124Z,989.41
2023-05-24T04:06:37.076Z,989.41
2023-05-24T04:07:37.094Z,989.40
2023-05-24T04:08:37.060Z,989.40
2023-05-24T04:09:37.075Z,989.40
2023-05-24T04:10:37.049Z,989.41
2023-05-24T04:11:37.083Z,989.42
2023-05-24T04:12:37.028Z,989.42
2023-05-24T04:13:37.029Z,989.43
2023-05-24T04:14:37.019Z,989.43
2023-05-24T04:15:36.995Z,989.43
2023-05-24T04:16:37.036Z,989.43
2023-05-24T04:17:37.080Z,989.43
2023-05-24T04:18:37.022Z,989.43
2023-05-24T04:19:36.966Z,989.42
2023-05-24T04:20:36.995Z,989.43
2023-05-24T04:21:36.972Z,989.44
2023-05-24T04:22:36.939Z,989.45
2023-05-24T04:23:36.908Z,989.46
2023-05-24T04:24:36.906Z,989.46
2023-05-24T04:25:36.876Z,989.47
2023-05-24T04:26:36.897Z,989.47
2023-05-24T04:27:36.865Z,989.49
2023-05-24T04:28:36.852Z,989.50
2023-05-24T04:29:36.840Z,989.50
2023-05-24T04:30:36.883Z,989.50
2023-05-24T04:31:36.953Z,989.51
2023-05-24T04:32:36.939Z,989.51
2023-05-24T04:33:36.840Z,989.52
2023-05-24T04:34:36.819Z,989.52
2023-05-24T04:35:36.811Z,989.52
2023-05-24T04:36:36.793Z,989.52
2023-05-24T04:37:36.830Z,989.52
2023-05-24T04:38:36.770Z,989.52
2023-05-24T04:39:36.772Z,989.52
2023-05-24T04:40:36.744Z,989.54
2023-05-24T04:41:36.717Z,989.56
2023-05-24T04:42:36.711Z,989.58
2023-05-24T04:43:36.741Z,989.60
2023-05-24T04:44:36.681Z,989.62
2023-05-24T04:45:36.692Z,989.63
2023-05-24T04:46:36.727Z,989.64
2023-05-24T04:47:36.718Z,989.65
2023-05-24T04:48:36.690Z,989.67
2023-05-24T04:49:36.687Z,989.70
2023-05-24T04:50:36.641Z,989.71
2023-05-24T04:51:36.640Z,989.71
2023-05-24T04:52:36.635Z,989.70
2023-05-24T04:53:36.625Z,989.69
2023-05-24T04:54:36.653Z,989.68
2023-05-24T04:55:36.596Z,989.69
2023-05-24T04:56:36.585Z,989.70
2023-05-24T04:57:36.564Z,989.70
2023-05-24T04:58:39.291Z,989.70
2023-05-24T04:59:36.558Z,989.70
2023-05-24T05:00:36.546Z,989.72
2023-05-24T05:01:36.573Z,989.75
2023-05-24T05:02:36.613Z,989.77
2023-05-24T05:03:36.617Z,989.80
2023-05-24T05:04:36.541Z,989.81
2023-05-24T05:05:36.493Z,989.81
2023-05-24T05:06:36.479Z,989.83
2023-05-24T05:07:36.472Z,989.83
2023-05-24T05:08:36.463Z,989.85
2023-05-24T05:09:36.477Z,989.86
2023-05-24T05:10:36.450Z,989.85
2023-05-24T05:11:36.426Z,989.84
2023-05-24T05:12:36.402Z,989.83
2023-05-24T05:13:36.399Z,989.84
2023-05-24T05:14:36.412Z,989.85
2023-05-24T05:15:36.401Z,989.85
2023-05-24T05:16:36.372Z,989.84
2023-05-24T05:17:36.373Z,989.84
2023-05-24T05:18:36.351Z,989.84
2023-05-24T05:19:36.341Z,989.83
2023-05-24T05:20:36.448Z,989.85
2023-05-24T05:21:36.339Z,989.87
2023-05-24T05:22:36.333Z,989.88
2023-05-24T05:23:36.317Z,989.88
2023-05-24T05:24:36.288Z,989.87
2023-05-24T05:25:36.303Z,989.87
2023-05-24T05:26:36.266Z,989.87
2023-05-24T05:27:36.264Z,989.87
2023-05-24T05:28:36.274Z,989.88
2023-05-24T05:29:36.255Z,989.89
2023-05-24T05:30:36.252Z,989.89
2023-05-24T05:31:36.256Z,989.88
2023-05-24T05:32:36.346Z,989.86
2023-05-24T05:33:36.232Z,989.87
2023-05-24T05:34:36.206Z,989.85
2023-05-24T05:35:36.181Z,989.86
2023-05-24T05:36:36.201Z,989.83
2023-05-24T05:37:36.181Z,989.82
2023-05-24T05:38:36.157Z,989.83
2023-05-24T05:39:36.144Z,989.84
2023-05-24T05:40:36.130Z,989.84
2023-05-24T05:41:36.134Z,989.84
2023-05-24T05:42:36.152Z,989.85
2023-05-24T05:43:36.088Z,989.85
2023-05-24T05:44:36.102Z,989.86
2023-05-24T05:45:36.081Z,989.88
2023-05-24T05:46:36.103Z,989.87
2023-05-24T05:47:36.121Z,989.88
2023-05-24T05:48:36.098Z,989.90
2023-05-24T05:49:36.032Z,989.90
2023-05-24T05:50:36.040Z,989.91
2023-05-24T05:51:36.028Z,989.95
2023-05-24T05:52:36.015Z,989.95
2023-05-24T05:53:35.999Z,989.95
2023-05-24T05:54:36.009Z,989.95
2023-05-24T05:55:36.008Z,989.96
2023-05-24T05:56:35.979Z,989.97
2023-05-24T05:57:35.973Z,989.98
2023-05-24T05:58:35.953Z,990.01
2023-05-24T05:59:36.624Z,990.03
2023-05-24T06:00:35.964Z,990.04
2023-05-24T06:01:35.925Z,990.07
2023-05-24T06:02:35.978Z,990.07
2023-05-24T06:03:35.954Z,990.08
2023-05-24T06:04:35.973Z,990.08
2023-05-24T06:05:35.870Z,990.09
2023-05-24T06:06:35.892Z,990.11
2023-05-24T06:07:35.865Z,990.14
2023-05-24T06:08:35.861Z,990.13
2023-05-24T06:09:35.839Z,990.13
2023-05-24T06:10:35.854Z,990.15
2023-05-24T06:11:35.871Z,990.15
2023-05-24T06:12:35.818Z,990.17
2023-05-24T06:13:35.793Z,990.17
2023-05-24T06:14:35.799Z,990.15
2023-05-24T06:15:35.764Z,990.13
2023-05-24T06:16:35.862Z,990.14
2023-05-24T06:17:35.767Z,990.14
2023-05-24T06:18:35.771Z,990.14
2023-05-24T06:19:35.731Z,990.13
2023-05-24T06:20:35.769Z,990.14
2023-05-24T06:21:35.727Z,990.14
2023-05-24T06:22:35.704Z,990.13
2023-05-24T06:23:35.685Z,990.12
2023-05-24T06:24:35.709Z,990.12
2023-05-24T06:25:35.682Z,990.13
2023-05-24T06:26:35.707Z,990.13
2023-05-24T06:27:35.654Z,990.13
2023-05-24T06:28:35.645Z,990.14
2023-05-24T06:29:35.635Z,990.15
2023-05-24T06:30:35.734Z,990.18
2023-05-24T06:31:35.941Z,990.20
2023-05-24T06:32:35.712Z,990.21
2023-05-24T06:33:37.771Z,990.23
2023-05-24T06:34:35.588Z,990.24
2023-05-24T06:35:35.579Z,990.23
2023-05-24T06:36:35.583Z,990.22
2023-05-24T06:37:35.556Z,990.23
2023-05-24T06:38:35.600Z,990.24
2023-05-24T06:39:35.522Z,990.25
2023-05-24T06:40:35.532Z,990.27
2023-05-24T06:41:35.517Z,990.27
2023-05-24T06:42:35.514Z,990.27
2023-05-24T06:43:35.491Z,990.27
2023-05-24T06:44:35.516Z,990.27
2023-05-24T06:45:35.469Z,990.27
2023-05-24T06:46:35.493Z,990.26
2023-05-24T06:47:35.498Z,990.27
2023-05-24T06:48:35.528Z,990.28
2023-05-24T06:49:35.457Z,990.28
2023-05-24T06:50:35.425Z,990.29
2023-05-24T06:51:35.422Z,990.29
2023-05-24T06:52:35.409Z,990.29
2023-05-24T06:53:35.389Z,990.28
2023-05-24T06:54:35.393Z,990.27
2023-05-24T06:55:35.386Z,990.26
2023-05-24T06:56:35.356Z,990.23
2023-05-24T06:57:35.354Z,990.24
2023-05-24T06:58:35.336Z,990.24
2023-05-24T06:59:35.320Z,990.25
2023-05-24T07:00:35.316Z,990.23
2023-05-24T07:01:35.360Z,990.23
2023-05-24T07:02:35.351Z,990.23
2023-05-24T07:03:35.296Z,990.23
2023-05-24T07:04:35.320Z,990.25
2023-05-24T07:05:35.265Z,990.25
2023-05-24T07:06:35.310Z,990.28
2023-05-24T07:07:35.268Z,990.28
2023-05-24T07:08:35.240Z,990.29
2023-05-24T07:09:35.228Z,990.30
2023-05-24T07:10:35.233Z,990.32
2023-05-24T07:11:35.236Z,990.30
2023-05-24T07:12:35.251Z,990.33
2023-05-24T07:13:35.199Z,990.33
2023-05-24T07:14:35.183Z,990.35
2023-05-24T07:15:35.158Z,990.35
2023-05-24T07:16:35.187Z,990.35
2023-05-24T07:17:35.228Z,990.35
2023-05-24T07:18:35.146Z,990.36
2023-05-24T07:19:35.142Z,990.36
2023-05-24T07:20:35.264Z,990.36
2023-05-24T07:21:35.105Z,990.39
2023-05-24T07:22:35.098Z,990.38
2023-05-24T07:23:35.115Z,990.39
2023-05-24T07:24:35.095Z,990.39
2023-05-24T07:25:35.100Z,990.38
2023-05-24T07:26:35.085Z,990.38
2023-05-24T07:27:35.042Z,990.38
2023-05-24T07:28:35.054Z,990.38
2023-05-24T07:29:35.015Z,990.35
2023-05-24T07:30:35.050Z,990.36
2023-05-24T07:31:35.023Z,990.33
2023-05-24T07:32:35.144Z,990.36
2023-05-24T07:33:35.030Z,990.35
2023-05-24T07:34:34.980Z,990.37
2023-05-24T07:35:34.955Z,990.38
2023-05-24T07:36:35.160Z,990.39
2023-05-24T07:37:34.930Z,990.40
2023-05-24T07:38:34.961Z,990.40
2023-05-24T07:39:34.907Z,990.43
2023-05-24T07:40:34.923Z,990.42
2023-05-24T07:41:34.912Z,990.42
2023-05-24T07:42:34.910Z,990.43
2023-05-24T07:43:34.928Z,990.45
2023-05-24T07:44:34.938Z,990.41
2023-05-24T07:45:34.903Z,990.46
2023-05-24T07:46:34.957Z,990.42
2023-05-24T07:47:34.859Z,990.45
2023-05-24T07:48:34.860Z,990.41
2023-05-24T07:49:34.829Z,990.42
2023-05-24T07:50:34.882Z,990.41
2023-05-24T07:51:34.807Z,990.41
2023-05-24T07:52:34.789Z,990.41
2023-05-24T07:53:34.812Z,990.40
2023-05-24T07:54:34.773Z,990.40
2023-05-24T07:55:34.782Z,990.40
2023-05-24T07:56:34.758Z,990.41
2023-05-24T07:57:34.735Z,990.40
2023-05-24T07:58:34.757Z,990.39
2023-05-24T07:59:34.723Z,990.40
2023-05-24T08:00:34.723Z,990.40
2023-05-24T08:01:34.712Z,990.40
2023-05-24T08:02:34.935Z,990.43
2023-05-24T08:03:34.762Z,990.41
2023-05-24T08:04:34.675Z,990.40
2023-05-24T08:05:34.681Z,990.42
2023-05-24T08:06:34.698Z,990.41
2023-05-24T08:07:34.660Z,990.42
2023-05-24T08:08:34.692Z,990.42
2023-05-24T08:09:34.634Z,990.42
2023-05-24T08:10:34.663Z,990.40
2023-05-24T08:11:34.605Z,990.41
2023-05-24T08:12:34.605Z,990.39
2023-05-24T08:13:34.611Z,990.40
2023-05-24T08:14:34.612Z,990.40
2023-05-24T08:15:34.564Z,990.40
2023-05-24T08:16:34.648Z,990.38
2023-05-24T08:17:34.554Z,990.35
2023-05-24T08:18:34.559Z,990.34
2023-05-24T08:19:34.542Z,990.36
2023-05-24T08:20:34.532Z,990.37
2023-05-24T08:21:34.500Z,990.38
2023-05-24T08:22:34.487Z,990.37
2023-05-24T08:23:34.518Z,990.41
2023-05-24T08:24:34.476Z,990.41
2023-05-24T08:25:34.497Z,990.42
2023-05-24T08:26:34.472Z,990.42
2023-05-24T08:27:34.446Z,990.42
2023-05-24T08:28:34.486Z,990.44
2023-05-24T08:29:34.455Z,990.46
2023-05-24T08:30:34.425Z,990.46
2023-05-24T08:31:34.504Z,990.47
2023-05-24T08:32:34.455Z,990.47
2023-05-24T08:33:34.373Z,990.47
2023-05-24T08:34:34.387Z,990.48
2023-05-24T08:35:34.359Z,990.45
2023-05-24T08:36:34.352Z,990.45
2023-05-24T08:37:34.350Z,990.43
2023-05-24T08:38:34.387Z,990.44
2023-05-24T08:39:34.315Z,990.43
2023-05-24T08:40:34.358Z,990.43
2023-05-24T08:41:34.290Z,990.46
2023-05-24T08:42:34.276Z,990.49
2023-05-24T08:43:34.267Z,990.48
2023-05-24T08:44:34.253Z,990.50
2023-05-24T08:45:34.255Z,990.49
2023-05-24T08:46:34.531Z,990.53
2023-05-24T08:47:34.373Z,990.51
2023-05-24T08:48:34.296Z,990.50
2023-05-24T08:49:34.236Z,990.49
2023-05-24T08:50:34.222Z,990.49
2023-05-24T08:51:34.226Z,990.48
2023-05-24T08:52:34.236Z,990.49
2023-05-24T08:53:34.178Z,990.45
2023-05-24T08:54:34.177Z,990.45
2023-05-24T08:55:34.148Z,990.45
2023-05-24T08:56:34.161Z,990.45
2023-05-24T08:57:34.133Z,990.43
2023-05-24T08:58:34.323Z,990.44
2023-05-24T08:59:34.126Z,990.44
2023-05-24T09:00:34.093Z,990.43
2023-05-24T09:01:35.424Z,990.45
2023-05-24T09:02:34.129Z,990.44
2023-05-24T09:03:34.280Z,990.45
2023-05-24T09:04:34.083Z,990.45
2023-05-24T09:05:34.073Z,990.43
2023-05-24T09:06:34.060Z,990.45
2023-05-24T09:07:34.030Z,990.43
2023-05-24T09:08:34.034Z,990.44
2023-05-24T09:09:34.009Z,990.38
2023-05-24T09:10:45.085Z,990.41
2023-05-24T09:11:34.010Z,990.41
2023-05-24T09:12:38.257Z,990.42
2023-05-24T09:13:34.071Z,990.41
2023-05-24T09:14:33.977Z,990.41
2023-05-24T09:15:33.963Z,990.43
2023-05-24T09:16:33.993Z,990.43
2023-05-24T09:17:34.068Z,990.43
2023-05-24T09:18:33.945Z,990.47
2023-05-24T09:19:33.951Z,990.49
2023-05-24T09:20:33.924Z,990.48
2023-05-24T09:21:33.899Z,990.49
2023-05-24T09:22:33.861Z,990.53
2023-05-24T09:23:33.878Z,990.49
2023-05-24T09:24:33.875Z,990.54
2023-05-24T09:25:33.872Z,990.49
2023-05-24T09:26:33.828Z,990.52
2023-05-24T09:27:33.850Z,990.53
2023-05-24T09:28:33.838Z,990.50
2023-05-24T09:29:34.100Z,990.52
2023-05-24T09:30:33.833Z,990.53
2023-05-24T09:31:33.872Z,990.53
2023-05-24T09:32:33.800Z,990.53
2023-05-24T09:33:33.779Z,990.54
2023-05-24T09:34:33.776Z,990.52
2023-05-24T09:35:33.770Z,990.54
2023-05-24T09:36:33.728Z,990.54
2023-05-24T09:37:33.712Z,990.55
2023-05-24T09:38:33.697Z,990.54
2023-05-24T09:39:33.744Z,990.55
2023-05-24T09:40:33.696Z,990.53
2023-05-24T09:41:33.689Z,990.54
2023-05-24T09:42:33.675Z,990.53
2023-05-24T09:43:33.680Z,990.52
2023-05-24T09:44:33.658Z,990.52
2023-05-24T09:45:33.661Z,990.50
2023-05-24T09:46:33.676Z,990.51
2023-05-24T09:47:33.686Z,990.48
2023-05-24T09:48:33.603Z,990.49
2023-05-24T09:49:33.606Z,990.47
2023-05-24T09:50:33.624Z,990.48
2023-05-24T09:51:33.605Z,990.47
2023-05-24T09:52:34.039Z,990.48
2023-05-24T09:53:33.561Z,990.46
2023-05-24T09:54:33.556Z,990.45
2023-05-24T09:55:33.565Z,990.43
2023-05-24T09:56:33.553Z,990.40
2023-05-24T09:57:33.542Z,990.39
2023-05-24T09:58:33.563Z,990.41
2023-05-24T09:59:33.491Z,990.43
2023-05-24T10:00:33.502Z,990.45
2023-05-24T10:01:33.544Z,990.43
2023-05-24T10:02:41.521Z,990.44
2023-05-24T10:03:33.503Z,990.44
2023-05-24T10:04:33.530Z,990.47
2023-05-24T10:05:33.459Z,990.42
2023-05-24T10:06:33.434Z,990.43
2023-05-24T10:07:33.450Z,990.41
2023-05-24T10:08:33.410Z,990.43
2023-05-24T10:09:33.414Z,990.43
2023-05-24T10:10:33.436Z,990.46
2023-05-24T10:11:33.375Z,990.45
2023-05-24T10:12:33.361Z,990.45
2023-05-24T10:13:33.348Z,990.44
2023-05-24T10:14:33.349Z,990.43
2023-05-24T10:15:33.393Z,990.40
2023-05-24T10:16:33.373Z,990.39
2023-05-24T10:17:33.398Z,990.38
2023-05-24T10:18:33.315Z,990.36
2023-05-24T10:19:33.296Z,990.36
2023-05-24T10:20:33.312Z,990.35
2023-05-24T10:21:33.371Z,990.34
2023-05-24T10:22:33.272Z,990.37
2023-05-24T10:23:33.260Z,990.35
2023-05-24T10:24:33.242Z,990.36
2023-05-24T10:25:33.222Z,990.37
2023-05-24T10:26:33.238Z,990.38
2023-05-24T10:27:33.202Z,990.38
2023-05-24T10:28:33.191Z,990.40
2023-05-24T10:29:33.201Z,990.38
2023-05-24T10:30:33.201Z,990.38
2023-05-24T10:31:33.260Z,990.36
2023-05-24T10:32:33.213Z,990.35
2023-05-24T10:33:33.172Z,990.32
2023-05-24T10:34:33.151Z,990.27
2023-05-24T10:35:33.135Z,990.29
2023-05-24T10:36:33.156Z,990.29
2023-05-24T10:37:33.120Z,990.24
2023-05-24T10:38:33.108Z,990.26
2023-05-24T10:39:33.078Z,990.29
2023-05-24T10:40:33.090Z,990.31
2023-05-24T10:41:33.112Z,990.31
2023-05-24T10:42:33.060Z,990.28
2023-05-24T10:43:33.055Z,990.24
2023-05-24T10:44:33.042Z,990.26
2023-05-24T10:45:33.058Z,990.24
2023-05-24T10:46:33.162Z,990.21
2023-05-24T10:47:33.026Z,990.18
2023-05-24T10:48:33.001Z,990.17
2023-05-24T10:49:32.986Z,990.16
2023-05-24T10:50:32.967Z,990.15
2023-05-24T10:51:32.987Z,990.15
2023-05-24T10:52:32.990Z,990.18
2023-05-24T10:53:32.979Z,990.15
2023-05-24T10:54:32.919Z,990.15
2023-05-24T10:55:32.926Z,990.15
2023-05-24T10:56:32.934Z,990.12
2023-05-24T10:57:32.936Z,990.12
2023-05-24T10:58:32.906Z,990.11
2023-05-24T10:59:32.893Z,990.12
2023-05-24T11:00:35.679Z,990.11
2023-05-24T11:01:32.915Z,990.10
2023-05-24T11:02:32.943Z,990.14
2023-05-24T11:03:32.879Z,990.10
2023-05-24T11:04:32.834Z,990.11
2023-05-24T11:05:32.922Z,990.09
2023-05-24T11:06:32.837Z,990.05
2023-05-24T11:07:32.822Z,990.04
2023-05-24T11:08:32.783Z,990.03
2023-05-24T11:09:32.789Z,990.03
2023-05-24T11:10:32.771Z,990.00
2023-05-24T11:11:32.842Z,990.04
2023-05-24T11:12:32.783Z,990.03
2023-05-24T11:13:32.747Z,990.03
2023-05-24T11:14:32.730Z,990.00
2023-05-24T11:15:32.751Z,990.01
2023-05-24T11:16:32.733Z,989.95
2023-05-24T11:17:32.744Z,989.95
2023-05-24T11:18:32.694Z,989.95
2023-05-24T11:19:32.701Z,989.93
2023-05-24T11:20:32.703Z,989.92
2023-05-24T11:21:32.658Z,989.93
2023-05-24T11:22:32.653Z,989.90
2023-05-24T11:23:32.664Z,989.90
2023-05-24T11:24:32.624Z,989.89
2023-05-24T11:25:32.630Z,989.89
2023-05-24T11:26:32.600Z,989.90
2023-05-24T11:27:32.623Z,989.85
2023-05-24T11:28:32.709Z,989.86
2023-05-24T11:29:32.583Z,989.86
2023-05-24T11:30:32.582Z,989.87
2023-05-24T11:31:32.590Z,989.87
2023-05-24T11:32:32.607Z,989.86
2023-05-24T11:33:32.567Z,989.85
2023-05-24T11:34:32.555Z,989.83
2023-05-24T11:35:32.519Z,989.85
2023-05-24T11:36:32.515Z,989.84
2023-05-24T11:37:45.465Z,989.85
2023-05-24T11:38:32.478Z,989.84
2023-05-24T11:39:32.497Z,989.81
2023-05-24T11:40:32.467Z,989.79
2023-05-24T11:41:32.445Z,989.78
2023-05-24T11:42:32.450Z,989.79
2023-05-24T11:43:32.441Z,989.76
2023-05-24T11:44:32.443Z,989.77
2023-05-24T11:45:32.497Z,989.80
2023-05-24T11:46:32.460Z,989.80
2023-05-24T11:47:32.633Z,989.79
2023-05-24T11:48:32.377Z,989.78
2023-05-24T11:49:32.404Z,989.78
2023-05-24T11:50:42.203Z,989.73
2023-05-24T11:51:32.402Z,989.67
2023-05-24T11:52:32.347Z,989.74
2023-05-24T11:53:32.335Z,989.70
2023-05-24T11:54:32.365Z,989.75
2023-05-24T11:55:32.317Z,989.76
2023-05-24T11:56:33.844Z,989.78
2023-05-24T11:57:32.300Z,989.72
2023-05-24T11:58:32.308Z,989.80
2023-05-24T11:59:32.293Z,989.80
2023-05-24T12:00:32.258Z,989.82
2023-05-24T12:01:32.239Z,989.80
2023-05-24T12:02:32.318Z,989.78
2023-05-24T12:03:32.433Z,989.72
2023-05-24T12:04:32.428Z,989.76
2023-05-24T12:05:32.197Z,989.71
2023-05-24T12:06:32.193Z,989.68
2023-05-24T12:07:32.207Z,989.70
2023-05-24T12:08:32.226Z,989.71
2023-05-24T12:09:32.177Z,989.73
2023-05-24T12:10:32.153Z,989.73
2023-05-24T12:11:32.183Z,989.73
2023-05-24T12:12:42.340Z,989.70
2023-05-24T12:13:32.122Z,989.72
2023-05-24T12:14:32.151Z,989.73
2023-05-24T12:15:32.232Z,989.72
2023-05-24T12:16:32.214Z,989.77
2023-05-24T12:17:32.112Z,989.76
2023-05-24T12:18:32.077Z,989.76
2023-05-24T12:19:33.976Z,989.78
2023-05-24T12:20:32.135Z,989.79
2023-05-24T12:21:32.055Z,989.79
2023-05-24T12:22:32.060Z,989.80
2023-05-24T12:23:32.065Z,989.80
2023-05-24T12:24:32.011Z,989.77
2023-05-24T12:25:32.012Z,989.73
2023-05-24T12:26:32.005Z,989.74
2023-05-24T12:27:31.986Z,989.76
2023-05-24T12:28:31.969Z,989.75